sensor_id;sensor_type;location;lat;lon;timestamp;noise_LAeq;noise_LA_min;noise_LA_max;noise_LA01;noise_LA95
43168;Laerm;28773;48.804;9.024;2023-12-20T00:00:11;62.81;56.32;70.01;;
43168;Laerm;28773;48.804;9.024;2023-12-20T00:02:36;62.94;56.32;70.37;;
43168;Laerm;28773;48.804;9.024;2023-12-20T00:05:02;63.12;56.67;70.30;;
43168;Laerm;28773;48.804;9.024;2023-12-20T00:07:27;63.52;57.94;70.52;;
43168;Laerm;28773;48.804;9.024;2023-12-20T00:09:52;63.59;58.11;70.44;;
43168;Laerm;28773;48.804;9.024;2023-12-20T00:12:17;64.13;60.08;70.64;;
43168;Laerm;28773;48.804;9.024;2023-12-20T00:14:42;64.33;59.87;70.38;;
43168;Laerm;28773;48.804;9.024;2023-12-20T00:17:07;64.63;61.09;70.80;;
43168;Laerm;28773;48.804;9.024;2023-12-20T00:19:33;64.30;59.27;70.68;;
43168;Laerm;28773;48.804;9.024;2023-12-20T00:21:58;64.30;59.87;70.78;;
43168;Laerm;28773;48.804;9.024;2023-12-20T00:24:24;65.16;60.75;71.36;;
43168;Laerm;28773;48.804;9.024;2023-12-20T00:26:49;66.96;61.60;72.04;;
43168;Laerm;28773;48.804;9.024;2023-12-20T00:29:14;68.42;64.34;72.84;;
43168;Laerm;28773;48.804;9.024;2023-12-20T00:31:40;69.37;66.71;73.81;;
43168;Laerm;28773;48.804;9.024;2023-12-20T00:34:05;71.35;68.76;74.52;;
43168;Laerm;28773;48.804;9.024;2023-12-20T00:36:30;71.42;69.11;74.44;;
43168;Laerm;28773;48.804;9.024;2023-12-20T00:38:55;71.54;69.11;74.59;;
43168;Laerm;28773;48.804;9.024;2023-12-20T00:41:20;71.60;69.17;74.65;;
43168;Laerm;28773;48.804;9.024;2023-12-20T00:43:46;71.99;69.42;74.91;;
43168;Laerm;28773;48.804;9.024;2023-12-20T00:46:11;72.07;69.82;74.95;;
43168;Laerm;28773;48.804;9.024;2023-12-20T00:48:36;71.94;69.73;74.85;;
43168;Laerm;28773;48.804;9.024;2023-12-20T00:51:01;71.36;68.66;74.81;;
43168;Laerm;28773;48.804;9.024;2023-12-20T00:53:26;71.22;68.37;74.54;;
43168;Laerm;28773;48.804;9.024;2023-12-20T00:55:51;70.43;67.72;74.07;;
43168;Laerm;28773;48.804;9.024;2023-12-20T00:58:17;69.44;67.05;73.13;;
43168;Laerm;28773;48.804;9.024;2023-12-20T01:00:42;69.13;66.78;72.72;;
43168;Laerm;28773;48.804;9.024;2023-12-20T01:03:08;69.29;66.74;73.14;;
43168;Laerm;28773;48.804;9.024;2023-12-20T01:05:33;68.95;66.44;72.59;;
43168;Laerm;28773;48.804;9.024;2023-12-20T01:07:58;68.43;65.63;72.30;;
43168;Laerm;28773;48.804;9.024;2023-12-20T01:10:23;68.30;65.54;72.29;;
43168;Laerm;28773;48.804;9.024;2023-12-20T01:12:48;68.10;65.57;72.17;;
43168;Laerm;28773;48.804;9.024;2023-12-20T01:15:14;68.32;65.65;72.31;;
43168;Laerm;28773;48.804;9.024;2023-12-20T01:17:39;67.86;63.86;72.17;;
43168;Laerm;28773;48.804;9.024;2023-12-20T01:20:04;67.62;62.58;72.00;;
43168;Laerm;28773;48.804;9.024;2023-12-20T01:22:30;67.47;62.53;71.84;;
43168;Laerm;28773;48.804;9.024;2023-12-20T01:24:55;67.40;62.34;71.81;;
43168;Laerm;28773;48.804;9.024;2023-12-20T01:27:20;67.32;62.35;84.12;;
43168;Laerm;28773;48.804;9.024;2023-12-20T01:29:45;67.18;62.21;71.65;;
43168;Laerm;28773;48.804;9.024;2023-12-20T01:32:11;67.08;61.73;71.62;;
43168;Laerm;28773;48.804;9.024;2023-12-20T01:34:36;66.68;61.25;71.38;;
43168;Laerm;28773;48.804;9.024;2023-12-20T01:37:01;66.53;60.96;71.26;;
43168;Laerm;28773;48.804;9.024;2023-12-20T01:39:27;66.56;60.99;71.33;;
43168;Laerm;28773;48.804;9.024;2023-12-20T01:41:52;66.61;61.08;71.29;;
43168;Laerm;28773;48.804;9.024;2023-12-20T01:44:20;66.77;61.23;71.44;;
43168;Laerm;28773;48.804;9.024;2023-12-20T01:46:45;66.56;61.05;71.27;;
43168;Laerm;28773;48.804;9.024;2023-12-20T01:49:11;66.51;61.02;71.26;;
43168;Laerm;28773;48.804;9.024;2023-12-20T01:51:37;66.70;61.12;71.38;;
43168;Laerm;28773;48.804;9.024;2023-12-20T01:54:02;67.07;61.86;71.56;;
43168;Laerm;28773;48.804;9.024;2023-12-20T01:56:27;67.12;62.14;71.75;;
43168;Laerm;28773;48.804;9.024;2023-12-20T01:58:53;67.35;62.37;71.82;;
43168;Laerm;28773;48.804;9.024;2023-12-20T02:01:20;67.57;62.66;71.88;;
43168;Laerm;28773;48.804;9.024;2023-12-20T02:03:46;67.80;63.46;71.99;;
43168;Laerm;28773;48.804;9.024;2023-12-20T02:06:11;67.90;65.09;72.03;;
43168;Laerm;28773;48.804;9.024;2023-12-20T02:08:36;67.98;63.95;72.04;;
43168;Laerm;28773;48.804;9.024;2023-12-20T02:11:02;68.15;65.50;72.17;;
43168;Laerm;28773;48.804;9.024;2023-12-20T02:13:27;68.34;65.69;72.28;;
43168;Laerm;28773;48.804;9.024;2023-12-20T02:15:52;68.50;65.82;72.30;;
43168;Laerm;28773;48.804;9.024;2023-12-20T02:18:18;68.66;66.03;72.34;;
43168;Laerm;28773;48.804;9.024;2023-12-20T02:20:43;68.74;66.51;72.43;;
43168;Laerm;28773;48.804;9.024;2023-12-20T02:23:08;68.75;66.19;72.44;;
43168;Laerm;28773;48.804;9.024;2023-12-20T02:25:33;68.83;66.48;72.45;;
43168;Laerm;28773;48.804;9.024;2023-12-20T02:27:58;68.89;66.61;72.50;;
43168;Laerm;28773;48.804;9.024;2023-12-20T02:30:24;68.87;66.58;72.48;;
43168;Laerm;28773;48.804;9.024;2023-12-20T02:32:49;68.93;66.62;72.49;;
43168;Laerm;28773;48.804;9.024;2023-12-20T02:35:15;68.91;66.49;72.53;;
43168;Laerm;28773;48.804;9.024;2023-12-20T02:37:40;68.72;66.28;72.43;;
43168;Laerm;28773;48.804;9.024;2023-12-20T02:40:05;68.58;65.95;72.36;;
43168;Laerm;28773;48.804;9.024;2023-12-20T02:42:30;68.48;65.89;72.30;;
43168;Laerm;28773;48.804;9.024;2023-12-20T02:44:55;68.57;65.88;72.30;;
43168;Laerm;28773;48.804;9.024;2023-12-20T02:47:21;68.41;65.80;72.29;;
43168;Laerm;28773;48.804;9.024;2023-12-20T02:49:46;68.31;65.68;72.22;;
43168;Laerm;28773;48.804;9.024;2023-12-20T02:52:11;68.13;65.47;72.19;;
43168;Laerm;28773;48.804;9.024;2023-12-20T02:54:36;68.06;65.27;72.12;;
43168;Laerm;28773;48.804;9.024;2023-12-20T02:57:01;67.82;63.05;72.04;;
43168;Laerm;28773;48.804;9.024;2023-12-20T02:59:27;67.68;63.04;71.96;;
43168;Laerm;28773;48.804;9.024;2023-12-20T03:01:52;67.68;62.82;71.91;;
43168;Laerm;28773;48.804;9.024;2023-12-20T03:04:17;67.65;63.57;71.93;;
43168;Laerm;28773;48.804;9.024;2023-12-20T03:06:42;67.65;63.16;71.91;;
43168;Laerm;28773;48.804;9.024;2023-12-20T03:09:07;67.50;62.70;71.81;;
43168;Laerm;28773;48.804;9.024;2023-12-20T03:11:33;67.49;62.66;71.84;;
43168;Laerm;28773;48.804;9.024;2023-12-20T03:13:58;67.46;62.68;71.84;;
43168;Laerm;28773;48.804;9.024;2023-12-20T03:16:23;67.35;62.40;71.70;;
43168;Laerm;28773;48.804;9.024;2023-12-20T03:18:48;67.21;62.29;71.61;;
43168;Laerm;28773;48.804;9.024;2023-12-20T03:21:13;66.95;61.75;71.52;;
43168;Laerm;28773;48.804;9.024;2023-12-20T03:23:39;66.79;61.70;71.28;;
43168;Laerm;28773;48.804;9.024;2023-12-20T03:26:06;66.57;61.15;71.18;;
43168;Laerm;28773;48.804;9.024;2023-12-20T03:28:31;66.20;60.49;71.13;;
43168;Laerm;28773;48.804;9.024;2023-12-20T03:30:57;65.20;57.55;71.04;;
43168;Laerm;28773;48.804;9.024;2023-12-20T03:33:22;63.63;56.89;70.27;;
43168;Laerm;28773;48.804;9.024;2023-12-20T03:35:47;63.69;58.27;70.32;;
43168;Laerm;28773;48.804;9.024;2023-12-20T03:38:12;63.85;59.12;70.32;;
43168;Laerm;28773;48.804;9.024;2023-12-20T03:40:37;63.71;58.49;70.30;;
43168;Laerm;28773;48.804;9.024;2023-12-20T03:43:02;63.87;58.92;70.32;;
43168;Laerm;28773;48.804;9.024;2023-12-20T03:45:28;64.15;59.37;70.35;;
43168;Laerm;28773;48.804;9.024;2023-12-20T03:47:53;64.27;59.29;70.41;;
43168;Laerm;28773;48.804;9.024;2023-12-20T03:50:20;64.23;59.52;70.49;;
43168;Laerm;28773;48.804;9.024;2023-12-20T03:52:45;64.23;59.35;70.49;;
43168;Laerm;28773;48.804;9.024;2023-12-20T03:55:11;64.25;59.33;70.43;;
43168;Laerm;28773;48.804;9.024;2023-12-20T03:57:36;64.47;59.41;70.52;;
43168;Laerm;28773;48.804;9.024;2023-12-20T04:00:01;64.99;60.10;70.70;;
43168;Laerm;28773;48.804;9.024;2023-12-20T04:02:26;64.82;60.03;70.59;;
43168;Laerm;28773;48.804;9.024;2023-12-20T04:04:52;64.64;59.93;70.53;;
43168;Laerm;28773;48.804;9.024;2023-12-20T04:07:18;64.58;59.79;70.50;;
43168;Laerm;28773;48.804;9.024;2023-12-20T04:09:43;64.64;59.93;70.58;;
43168;Laerm;28773;48.804;9.024;2023-12-20T04:12:08;64.71;59.95;70.52;;
43168;Laerm;28773;48.804;9.024;2023-12-20T04:14:33;64.55;59.69;70.48;;
43168;Laerm;28773;48.804;9.024;2023-12-20T04:16:59;64.53;59.80;70.56;;
43168;Laerm;28773;48.804;9.024;2023-12-20T04:19:24;64.70;60.01;70.49;;
43168;Laerm;28773;48.804;9.024;2023-12-20T04:21:49;65.22;60.11;70.75;;
43168;Laerm;28773;48.804;9.024;2023-12-20T04:24:14;65.69;60.22;70.80;;
43168;Laerm;28773;48.804;9.024;2023-12-20T04:26:39;65.97;60.48;70.95;;
43168;Laerm;28773;48.804;9.024;2023-12-20T04:29:04;66.13;60.63;70.92;;
43168;Laerm;28773;48.804;9.024;2023-12-20T04:31:30;66.25;60.82;70.95;;
43168;Laerm;28773;48.804;9.024;2023-12-20T04:33:55;66.42;61.01;71.02;;
43168;Laerm;28773;48.804;9.024;2023-12-20T04:36:20;66.56;61.65;71.10;;
43168;Laerm;28773;48.804;9.024;2023-12-20T04:38:45;66.67;61.75;71.07;;
43168;Laerm;28773;48.804;9.024;2023-12-20T04:41:10;66.74;61.80;71.13;;
43168;Laerm;28773;48.804;9.024;2023-12-20T04:43:35;66.83;61.88;71.13;;
43168;Laerm;28773;48.804;9.024;2023-12-20T04:46:01;66.83;61.90;71.19;;
43168;Laerm;28773;48.804;9.024;2023-12-20T04:48:26;66.78;61.83;71.12;;
43168;Laerm;28773;48.804;9.024;2023-12-20T04:50:51;66.78;61.87;71.20;;
43168;Laerm;28773;48.804;9.024;2023-12-20T04:53:16;66.76;61.89;71.12;;
43168;Laerm;28773;48.804;9.024;2023-12-20T04:55:41;66.91;61.97;71.31;;
43168;Laerm;28773;48.804;9.024;2023-12-20T04:58:06;67.13;62.23;71.48;;
43168;Laerm;28773;48.804;9.024;2023-12-20T05:00:32;67.35;62.65;71.58;;
43168;Laerm;28773;48.804;9.024;2023-12-20T05:02:57;67.67;64.69;71.71;;
43168;Laerm;28773;48.804;9.024;2023-12-20T05:05:22;68.00;65.04;71.88;;
43168;Laerm;28773;48.804;9.024;2023-12-20T05:07:47;68.30;65.63;72.02;;
43168;Laerm;28773;48.804;9.024;2023-12-20T05:10:12;68.48;65.81;72.11;;
43168;Laerm;28773;48.804;9.024;2023-12-20T05:12:37;68.58;65.94;72.10;;
43168;Laerm;28773;48.804;9.024;2023-12-20T05:15:03;68.66;66.04;72.16;;
43168;Laerm;28773;48.804;9.024;2023-12-20T05:17:29;68.71;66.13;72.14;;
43168;Laerm;28773;48.804;9.024;2023-12-20T05:19:54;68.77;66.12;72.24;;
43168;Laerm;28773;48.804;9.024;2023-12-20T05:22:19;68.80;66.42;72.23;;
43168;Laerm;28773;48.804;9.024;2023-12-20T05:24:45;68.88;66.57;72.72;;
43168;Laerm;28773;48.804;9.024;2023-12-20T05:27:10;68.96;66.62;72.27;;
43168;Laerm;28773;48.804;9.024;2023-12-20T05:29:36;69.05;66.73;72.32;;
43168;Laerm;28773;48.804;9.024;2023-12-20T05:32:01;69.24;66.86;72.70;;
43168;Laerm;28773;48.804;9.024;2023-12-20T05:34:26;69.71;67.23;73.04;;
43168;Laerm;28773;48.804;9.024;2023-12-20T05:36:51;70.13;67.79;73.39;;
43168;Laerm;28773;48.804;9.024;2023-12-20T05:39:16;70.44;68.17;73.47;;
43168;Laerm;28773;48.804;9.024;2023-12-20T05:41:42;70.03;67.71;73.47;;
43168;Laerm;28773;48.804;9.024;2023-12-20T05:44:07;69.21;66.69;72.66;;
43168;Laerm;28773;48.804;9.024;2023-12-20T05:46:32;68.73;65.88;72.17;;
43168;Laerm;28773;48.804;9.024;2023-12-20T05:48:58;67.87;64.75;71.87;;
43168;Laerm;28773;48.804;9.024;2023-12-20T05:51:23;67.52;62.74;71.68;;
43168;Laerm;28773;48.804;9.024;2023-12-20T05:53:48;67.45;64.65;71.54;;
43168;Laerm;28773;48.804;9.024;2023-12-20T05:56:14;67.34;62.63;71.58;;
43168;Laerm;28773;48.804;9.024;2023-12-20T05:58:40;67.51;63.38;71.61;;
43168;Laerm;28773;48.804;9.024;2023-12-20T06:01:05;67.54;62.81;71.62;;
43168;Laerm;28773;48.804;9.024;2023-12-20T06:03:31;67.39;62.60;71.62;;
43168;Laerm;28773;48.804;9.024;2023-12-20T06:05:56;67.43;62.92;71.55;;
43168;Laerm;28773;48.804;9.024;2023-12-20T06:08:21;67.47;64.50;71.61;;
43168;Laerm;28773;48.804;9.024;2023-12-20T06:10:46;67.41;63.25;71.58;;
43168;Laerm;28773;48.804;9.024;2023-12-20T06:13:12;67.63;64.73;71.67;;
43168;Laerm;28773;48.804;9.024;2023-12-20T06:15:38;67.93;65.27;71.78;;
43168;Laerm;28773;48.804;9.024;2023-12-20T06:18:03;68.13;65.43;71.92;;
43168;Laerm;28773;48.804;9.024;2023-12-20T06:20:28;68.45;65.79;72.08;;
43168;Laerm;28773;48.804;9.024;2023-12-20T06:22:54;68.76;66.06;72.18;;
43168;Laerm;28773;48.804;9.024;2023-12-20T06:25:19;68.86;66.56;72.25;;
43168;Laerm;28773;48.804;9.024;2023-12-20T06:27:44;68.90;66.59;72.21;;
43168;Laerm;28773;48.804;9.024;2023-12-20T06:30:10;68.99;66.69;72.25;;
43168;Laerm;28773;48.804;9.024;2023-12-20T06:32:36;69.15;66.84;72.58;;
43168;Laerm;28773;48.804;9.024;2023-12-20T06:35:02;69.43;66.99;72.72;;
43168;Laerm;28773;48.804;9.024;2023-12-20T06:37:29;69.60;67.39;72.86;;
43168;Laerm;28773;48.804;9.024;2023-12-20T06:39:55;69.64;67.51;72.83;;
43168;Laerm;28773;48.804;9.024;2023-12-20T06:42:21;69.75;67.49;73.06;;
43168;Laerm;28773;48.804;9.024;2023-12-20T06:44:46;69.81;67.66;72.96;;
43168;Laerm;28773;48.804;9.024;2023-12-20T06:47:12;69.80;67.58;72.96;;
43168;Laerm;28773;48.804;9.024;2023-12-20T06:49:39;69.75;67.56;72.91;;
43168;Laerm;28773;48.804;9.024;2023-12-20T06:52:04;69.76;67.60;72.90;;
43168;Laerm;28773;48.804;9.024;2023-12-20T06:54:29;69.82;67.66;72.96;;
43168;Laerm;28773;48.804;9.024;2023-12-20T06:56:54;69.88;67.65;73.04;;
43168;Laerm;28773;48.804;9.024;2023-12-20T06:59:19;69.79;67.40;73.06;;
43168;Laerm;28773;48.804;9.024;2023-12-20T07:01:47;69.67;67.46;72.84;;
43168;Laerm;28773;48.804;9.024;2023-12-20T07:04:12;69.66;67.45;72.85;;
43168;Laerm;28773;48.804;9.024;2023-12-20T07:06:37;69.46;67.05;72.83;;
43168;Laerm;28773;48.804;9.024;2023-12-20T07:09:03;69.34;66.99;72.76;;
43168;Laerm;28773;48.804;9.024;2023-12-20T07:11:28;69.36;67.01;72.73;;
43168;Laerm;28773;48.804;9.024;2023-12-20T07:13:53;69.40;66.99;72.73;;
43168;Laerm;28773;48.804;9.024;2023-12-20T07:16:18;69.43;67.04;72.80;;
43168;Laerm;28773;48.804;9.024;2023-12-20T07:18:43;69.23;66.84;72.67;;
43168;Laerm;28773;48.804;9.024;2023-12-20T07:21:08;69.31;66.86;72.77;;
43168;Laerm;28773;48.804;9.024;2023-12-20T07:23:34;69.60;67.33;72.85;;
43168;Laerm;28773;48.804;9.024;2023-12-20T07:25:59;69.77;67.38;72.97;;
43168;Laerm;28773;48.804;9.024;2023-12-20T07:28:24;69.28;66.57;72.69;;
43168;Laerm;28773;48.804;9.024;2023-12-20T07:30:49;68.63;65.98;72.20;;
43168;Laerm;28773;48.804;9.024;2023-12-20T07:33:15;68.47;65.86;72.07;;
43168;Laerm;28773;48.804;9.024;2023-12-20T07:35:40;68.16;65.19;72.01;;
43168;Laerm;28773;48.804;9.024;2023-12-20T07:38:05;67.46;63.37;71.64;;
43168;Laerm;28773;48.804;9.024;2023-12-20T07:40:31;67.22;62.90;71.45;;
43168;Laerm;28773;48.804;9.024;2023-12-20T07:42:56;66.46;60.37;71.23;;
43168;Laerm;28773;48.804;9.024;2023-12-20T07:45:23;65.16;59.95;70.68;;
43168;Laerm;28773;48.804;9.024;2023-12-20T07:47:48;63.17;56.27;70.15;;
43168;Laerm;28773;48.804;9.024;2023-12-20T07:50:14;62.42;52.63;69.51;;
43168;Laerm;28773;48.804;9.024;2023-12-20T07:52:39;60.97;45.51;69.25;;
43168;Laerm;28773;48.804;9.024;2023-12-20T07:55:04;61.01;45.53;69.24;;
43168;Laerm;28773;48.804;9.024;2023-12-20T07:57:30;61.07;46.40;69.11;;
43168;Laerm;28773;48.804;9.024;2023-12-20T07:59:55;61.07;45.93;69.16;;
43168;Laerm;28773;48.804;9.024;2023-12-20T08:02:20;61.08;45.59;69.19;;
43168;Laerm;28773;48.804;9.024;2023-12-20T08:04:45;61.06;46.41;69.22;;
43168;Laerm;28773;48.804;9.024;2023-12-20T08:07:11;61.10;46.77;69.28;;
43168;Laerm;28773;48.804;9.024;2023-12-20T08:09:36;61.08;46.93;69.34;;
43168;Laerm;28773;48.804;9.024;2023-12-20T08:12:01;61.10;46.25;69.25;;
43168;Laerm;28773;48.804;9.024;2023-12-20T08:14:27;61.11;47.22;69.34;;
43168;Laerm;28773;48.804;9.024;2023-12-20T08:16:52;61.10;45.07;69.35;;
43168;Laerm;28773;48.804;9.024;2023-12-20T08:19:17;61.10;46.53;69.36;;
43168;Laerm;28773;48.804;9.024;2023-12-20T08:21:42;61.07;46.89;69.39;;
43168;Laerm;28773;48.804;9.024;2023-12-20T08:24:07;61.03;47.42;69.26;;
43168;Laerm;28773;48.804;9.024;2023-12-20T08:26:33;60.99;47.28;69.28;;
43168;Laerm;28773;48.804;9.024;2023-12-20T08:28:58;60.92;47.03;69.12;;
43168;Laerm;28773;48.804;9.024;2023-12-20T08:31:23;60.91;46.67;69.18;;
43168;Laerm;28773;48.804;9.024;2023-12-20T08:33:48;60.87;47.25;69.08;;
43168;Laerm;28773;48.804;9.024;2023-12-20T08:36:14;60.85;45.57;69.10;;
43168;Laerm;28773;48.804;9.024;2023-12-20T08:38:39;60.88;46.83;69.00;;
43168;Laerm;28773;48.804;9.024;2023-12-20T08:41:04;60.80;47.40;68.88;;
43168;Laerm;28773;48.804;9.024;2023-12-20T08:43:39;60.79;46.97;69.01;;
43168;Laerm;28773;48.804;9.024;2023-12-20T08:46:07;60.79;47.32;68.98;;
43168;Laerm;28773;48.804;9.024;2023-12-20T08:48:34;60.78;46.59;68.83;;
43168;Laerm;28773;48.804;9.024;2023-12-20T08:50:59;60.78;47.51;68.88;;
43168;Laerm;28773;48.804;9.024;2023-12-20T08:53:25;60.78;47.14;68.95;;
43168;Laerm;28773;48.804;9.024;2023-12-20T08:55:50;60.74;46.77;68.83;;
43168;Laerm;28773;48.804;9.024;2023-12-20T08:58:15;60.75;47.29;68.70;;
43168;Laerm;28773;48.804;9.024;2023-12-20T09:00:40;60.76;46.66;68.81;;
43168;Laerm;28773;48.804;9.024;2023-12-20T09:03:05;60.78;47.36;68.78;;
43168;Laerm;28773;48.804;9.024;2023-12-20T09:05:31;60.77;46.96;68.81;;
43168;Laerm;28773;48.804;9.024;2023-12-20T09:07:56;60.75;46.76;68.92;;
43168;Laerm;28773;48.804;9.024;2023-12-20T09:10:21;60.77;47.00;69.04;;
43168;Laerm;28773;48.804;9.024;2023-12-20T09:12:53;60.75;47.29;68.94;;
43168;Laerm;28773;48.804;9.024;2023-12-20T09:15:25;60.79;47.52;68.83;;
43168;Laerm;28773;48.804;9.024;2023-12-20T09:17:50;60.76;47.50;69.02;;
43168;Laerm;28773;48.804;9.024;2023-12-20T09:20:15;60.72;47.51;68.95;;
43168;Laerm;28773;48.804;9.024;2023-12-20T09:22:40;60.74;47.14;69.03;;
43168;Laerm;28773;48.804;9.024;2023-12-20T09:25:07;60.75;47.58;68.83;;
43168;Laerm;28773;48.804;9.024;2023-12-20T09:27:32;60.73;47.83;68.83;;
43168;Laerm;28773;48.804;9.024;2023-12-20T09:29:57;60.74;47.29;68.93;;
43168;Laerm;28773;48.804;9.024;2023-12-20T09:32:22;60.74;48.18;68.82;;
43168;Laerm;28773;48.804;9.024;2023-12-20T09:34:47;60.75;48.11;68.87;;
43168;Laerm;28773;48.804;9.024;2023-12-20T09:37:13;60.71;48.53;68.94;;
43168;Laerm;28773;48.804;9.024;2023-12-20T09:39:38;60.71;48.19;68.83;;
43168;Laerm;28773;48.804;9.024;2023-12-20T09:42:03;60.73;48.48;68.85;;
43168;Laerm;28773;48.804;9.024;2023-12-20T09:44:29;60.72;47.93;68.86;;
43168;Laerm;28773;48.804;9.024;2023-12-20T09:46:54;60.75;46.25;68.94;;
43168;Laerm;28773;48.804;9.024;2023-12-20T09:49:20;60.75;46.42;69.00;;
43168;Laerm;28773;48.804;9.024;2023-12-20T09:51:46;60.79;47.29;68.89;;
43168;Laerm;28773;48.804;9.024;2023-12-20T09:54:12;60.82;48.99;69.09;;
43168;Laerm;28773;48.804;9.024;2023-12-20T09:56:38;60.88;48.77;69.08;;
43168;Laerm;28773;48.804;9.024;2023-12-20T09:59:03;60.88;47.36;69.11;;
43168;Laerm;28773;48.804;9.024;2023-12-20T10:01:29;60.93;47.73;69.06;;
43168;Laerm;28773;48.804;9.024;2023-12-20T10:03:55;60.94;48.86;69.17;;
43168;Laerm;28773;48.804;9.024;2023-12-20T10:06:21;61.02;49.26;69.22;;
43168;Laerm;28773;48.804;9.024;2023-12-20T10:08:47;61.05;48.54;69.35;;
43168;Laerm;28773;48.804;9.024;2023-12-20T10:11:12;61.06;48.62;69.31;;
43168;Laerm;28773;48.804;9.024;2023-12-20T10:13:40;61.06;48.83;69.29;;
43168;Laerm;28773;48.804;9.024;2023-12-20T10:16:06;61.08;49.51;69.26;;
43168;Laerm;28773;48.804;9.024;2023-12-20T10:18:32;61.09;48.77;69.40;;
43168;Laerm;28773;48.804;9.024;2023-12-20T10:20:57;61.10;49.18;69.32;;
43168;Laerm;28773;48.804;9.024;2023-12-20T10:23:22;61.06;49.41;69.22;;
43168;Laerm;28773;48.804;9.024;2023-12-20T10:25:57;61.11;49.90;69.30;;
43168;Laerm;28773;48.804;9.024;2023-12-20T10:28:23;61.07;49.49;69.26;;
43168;Laerm;28773;48.804;9.024;2023-12-20T10:30:52;61.02;49.30;69.30;;
43168;Laerm;28773;48.804;9.024;2023-12-20T10:33:27;61.07;49.54;69.30;;
43168;Laerm;28773;48.804;9.024;2023-12-20T10:35:53;61.10;49.72;69.38;;
43168;Laerm;28773;48.804;9.024;2023-12-20T10:38:19;61.10;49.55;69.34;;
43168;Laerm;28773;48.804;9.024;2023-12-20T10:40:45;61.06;49.14;69.38;;
43168;Laerm;28773;48.804;9.024;2023-12-20T10:43:10;61.04;50.03;69.30;;
43168;Laerm;28773;48.804;9.024;2023-12-20T10:45:36;61.08;49.56;69.40;;
43168;Laerm;28773;48.804;9.024;2023-12-20T10:48:01;61.09;49.68;69.28;;
43168;Laerm;28773;48.804;9.024;2023-12-20T10:50:27;61.09;48.76;69.32;;
43168;Laerm;28773;48.804;9.024;2023-12-20T10:52:52;61.09;49.85;69.38;;
43168;Laerm;28773;48.804;9.024;2023-12-20T10:55:20;61.12;50.07;69.40;;
43168;Laerm;28773;48.804;9.024;2023-12-20T10:57:46;61.14;49.74;69.35;;
43168;Laerm;28773;48.804;9.024;2023-12-20T11:00:15;61.08;49.83;69.46;;
43168;Laerm;28773;48.804;9.024;2023-12-20T11:02:42;61.11;50.09;69.43;;
43168;Laerm;28773;48.804;9.024;2023-12-20T11:07:38;61.02;50.15;69.38;;
43168;Laerm;28773;48.804;9.024;2023-12-20T11:12:39;61.05;50.03;69.34;;
43168;Laerm;28773;48.804;9.024;2023-12-20T11:15:06;61.01;50.01;69.29;;
43168;Laerm;28773;48.804;9.024;2023-12-20T11:17:32;61.05;50.18;69.32;;
43168;Laerm;28773;48.804;9.024;2023-12-20T11:22:26;61.05;49.74;69.33;;
43168;Laerm;28773;48.804;9.024;2023-12-20T11:24:53;61.07;50.64;69.30;;
43168;Laerm;28773;48.804;9.024;2023-12-20T11:27:19;61.06;50.64;69.43;;
43168;Laerm;28773;48.804;9.024;2023-12-20T11:29:57;61.06;50.66;69.42;;
43168;Laerm;28773;48.804;9.024;2023-12-20T11:34:53;61.04;50.12;69.42;;
43168;Laerm;28773;48.804;9.024;2023-12-20T11:37:19;61.01;50.31;69.42;;
43168;Laerm;28773;48.804;9.024;2023-12-20T11:39:44;60.97;50.47;69.55;;
43168;Laerm;28773;48.804;9.024;2023-12-20T11:42:09;61.03;50.57;69.42;;
43168;Laerm;28773;48.804;9.024;2023-12-20T11:44:36;61.06;50.49;69.49;;
43168;Laerm;28773;48.804;9.024;2023-12-20T11:47:01;61.03;50.62;69.38;;
43168;Laerm;28773;48.804;9.024;2023-12-20T11:49:26;61.00;50.71;69.30;;
43168;Laerm;28773;48.804;9.024;2023-12-20T11:51:54;60.98;50.95;69.29;;
43168;Laerm;28773;48.804;9.024;2023-12-20T11:54:19;60.96;50.64;69.29;;
43168;Laerm;28773;48.804;9.024;2023-12-20T11:56:45;60.98;50.32;69.31;;
43168;Laerm;28773;48.804;9.024;2023-12-20T11:59:10;60.96;50.88;69.66;;
43168;Laerm;28773;48.804;9.024;2023-12-20T12:01:36;60.98;50.11;69.37;;
43168;Laerm;28773;48.804;9.024;2023-12-20T12:04:02;61.01;50.87;69.33;;
43168;Laerm;28773;48.804;9.024;2023-12-20T12:06:27;61.03;50.21;69.54;;
43168;Laerm;28773;48.804;9.024;2023-12-20T12:08:52;61.07;50.95;69.45;;
43168;Laerm;28773;48.804;9.024;2023-12-20T12:11:17;61.10;50.70;69.48;;
43168;Laerm;28773;48.804;9.024;2023-12-20T12:13:42;61.12;50.79;69.42;;
43168;Laerm;28773;48.804;9.024;2023-12-20T12:16:08;61.04;50.92;69.38;;
43168;Laerm;28773;48.804;9.024;2023-12-20T12:18:34;61.07;50.74;69.48;;
43168;Laerm;28773;48.804;9.024;2023-12-20T12:21:00;61.12;51.00;69.49;;
43168;Laerm;28773;48.804;9.024;2023-12-20T12:23:26;61.09;50.83;69.48;;
43168;Laerm;28773;48.804;9.024;2023-12-20T12:25:52;61.09;50.66;69.44;;
43168;Laerm;28773;48.804;9.024;2023-12-20T12:28:17;61.05;51.05;69.53;;
43168;Laerm;28773;48.804;9.024;2023-12-20T12:30:42;61.03;50.61;69.41;;
43168;Laerm;28773;48.804;9.024;2023-12-20T12:33:07;60.97;50.95;69.39;;
43168;Laerm;28773;48.804;9.024;2023-12-20T12:35:33;61.01;51.00;69.36;;
43168;Laerm;28773;48.804;9.024;2023-12-20T12:37:59;60.99;50.07;69.45;;
43168;Laerm;28773;48.804;9.024;2023-12-20T12:40:25;60.99;50.71;69.40;;
43168;Laerm;28773;48.804;9.024;2023-12-20T12:42:50;61.02;50.43;69.37;;
43168;Laerm;28773;48.804;9.024;2023-12-20T12:45:16;61.00;50.60;69.39;;
43168;Laerm;28773;48.804;9.024;2023-12-20T12:47:41;61.00;50.85;69.44;;
43168;Laerm;28773;48.804;9.024;2023-12-20T12:50:08;61.03;51.06;69.39;;
43168;Laerm;28773;48.804;9.024;2023-12-20T12:52:34;61.05;50.73;69.40;;
43168;Laerm;28773;48.804;9.024;2023-12-20T12:55:00;61.07;50.26;69.42;;
43168;Laerm;28773;48.804;9.024;2023-12-20T12:57:25;61.03;50.59;69.42;;
43168;Laerm;28773;48.804;9.024;2023-12-20T12:59:50;61.03;50.32;69.43;;
43168;Laerm;28773;48.804;9.024;2023-12-20T13:02:15;61.04;50.91;69.43;;
43168;Laerm;28773;48.804;9.024;2023-12-20T13:04:41;61.01;50.86;69.32;;
43168;Laerm;28773;48.804;9.024;2023-12-20T13:07:07;61.01;50.92;69.33;;
43168;Laerm;28773;48.804;9.024;2023-12-20T13:09:32;60.93;50.08;69.26;;
43168;Laerm;28773;48.804;9.024;2023-12-20T13:11:58;60.95;50.99;69.28;;
43168;Laerm;28773;48.804;9.024;2023-12-20T13:14:23;60.93;50.93;69.31;;
43168;Laerm;28773;48.804;9.024;2023-12-20T13:16:49;60.85;50.84;69.24;;
43168;Laerm;28773;48.804;9.024;2023-12-20T13:19:14;60.88;51.10;69.22;;
43168;Laerm;28773;48.804;9.024;2023-12-20T13:21:39;60.89;50.57;69.26;;
43168;Laerm;28773;48.804;9.024;2023-12-20T13:24:05;60.91;50.65;69.36;;
43168;Laerm;28773;48.804;9.024;2023-12-20T13:26:30;60.94;50.44;69.27;;
43168;Laerm;28773;48.804;9.024;2023-12-20T13:28:55;60.94;50.38;69.38;;
43168;Laerm;28773;48.804;9.024;2023-12-20T13:31:20;60.96;50.41;69.33;;
43168;Laerm;28773;48.804;9.024;2023-12-20T13:33:45;61.03;50.30;69.39;;
43168;Laerm;28773;48.804;9.024;2023-12-20T13:36:10;61.04;50.93;69.40;;
43168;Laerm;28773;48.804;9.024;2023-12-20T13:38:36;61.03;50.82;69.37;;
43168;Laerm;28773;48.804;9.024;2023-12-20T13:41:01;61.03;51.18;69.40;;
43168;Laerm;28773;48.804;9.024;2023-12-20T13:43:26;61.04;50.18;69.41;;